Time;durP1;ratioP1;P1;durP2;ratioP2;P2;SDS_P1;SDS_P2;PMS_P1;PMS_P2;Temp;Humidity;BMP_temperature;BMP_pressure;BME280_temperature;BME280_humidity;BME280_pressure;Samples;Min_cycle;Max_cycle;Signal;HPM_P1;HPM_P2
2021/10/22 00:05:33;;;;;;;4.45;1.35;;;;;;;;;;21083906;28;20404;-57
2021/10/22 00:15:35;;;;;;;5.67;1.90;;;;;;;;;;21066115;28;20047;-58
2021/10/22 00:25:37;;;;;;;11.65;2.47;;;;;;;;;;21082370;28;20420;-59
2021/10/22 00:35:41;;;;;;;3.13;1.92;;;;;;;;;;21082067;28;20403;-58
2021/10/22 00:45:43;;;;;;;3.50;1.80;;;;;;;;;;21080799;28;20048;-58
2021/10/22 00:55:45;;;;;;;4.65;1.70;;;;;;;;;;21079761;28;20127;-57
2021/10/22 01:05:47;;;;;;;4.90;1.73;;;;;;;;;;21079321;28;20075;-56
2021/10/22 01:15:49;;;;;;;8.25;2.25;;;;;;;;;;21079250;28;20044;-57
2021/10/22 01:25:51;;;;;;;5.07;2.10;;;;;;;;;;21078729;28;20560;-57
2021/10/22 01:35:53;;;;;;;5.13;1.83;;;;;;;;;;21092444;28;20052;-59
2021/10/22 01:45:56;;;;;;;5.68;2.20;;;;;;;;;;21094655;28;20135;-58
2021/10/22 01:55:58;;;;;;;4.95;1.88;;;;;;;;;;21093307;28;20062;-59
2021/10/22 02:06:00;;;;;;;5.30;1.80;;;;;;;;;;21093277;28;20052;-60
2021/10/22 02:16:05;;;;;;;5.30;1.92;;;;;;;;;;21093902;28;20063;-59
2021/10/22 02:26:10;;;;;;;5.93;1.63;;;;;;;;;;21110222;28;20480;-60
2021/10/22 02:36:13;;;;;;;10.65;2.58;;;;;;;;;;21090904;28;20131;-60
2021/10/22 02:46:17;;;;;;;6.60;2.28;;;;;;;;;;21089519;28;20070;-59
2021/10/22 02:56:20;;;;;;;5.30;2.25;;;;;;;;;;21089422;28;20052;-60
2021/10/22 03:06:22;;;;;;;4.95;1.70;;;;;;;;;;21088660;28;20048;-59
2021/10/22 03:16:26;;;;;;;7.50;2.17;;;;;;;;;;21088911;28;20048;-58
2021/10/22 03:26:31;;;;;;;6.70;2.10;;;;;;;;;;21069162;28;20059;-58
2021/10/22 03:36:35;;;;;;;8.90;2.75;;;;;;;;;;21087118;28;20113;-59
2021/10/22 03:46:38;;;;;;;5.65;2.13;;;;;;;;;;21086079;28;20149;-57
2021/10/22 03:56:41;;;;;;;5.68;1.85;;;;;;;;;;21083810;28;20063;-59
2021/10/22 04:06:45;;;;;;;8.82;2.13;;;;;;;;;;21083242;28;20059;-58
2021/10/22 04:16:49;;;;;;;8.63;2.03;;;;;;;;;;21082634;28;20052;-60
2021/10/22 04:26:53;;;;;;;10.23;2.47;;;;;;;;;;21081594;28;20052;-59
2021/10/22 04:37:09;;;;;;;7.30;2.23;;;;;;;;;;21081091;28;20657;-58
2021/10/22 04:47:12;;;;;;;6.63;2.25;;;;;;;;;;21080757;28;20052;-59
2021/10/22 04:57:17;;;;;;;5.33;2.13;;;;;;;;;;21079780;28;20066;-58
2021/10/22 05:07:19;;;;;;;7.20;2.20;;;;;;;;;;21078139;28;20055;-59
2021/10/22 05:17:23;;;;;;;6.40;2.33;;;;;;;;;;21079039;28;20453;-58
2021/10/22 05:27:25;;;;;;;8.48;2.05;;;;;;;;;;21077656;28;20044;-59
2021/10/22 05:37:28;;;;;;;7.80;2.28;;;;;;;;;;21077582;28;20133;-57
2021/10/22 05:47:31;;;;;;;8.38;1.80;;;;;;;;;;21078282;28;20380;-58
2021/10/22 05:57:33;;;;;;;4.53;1.77;;;;;;;;;;21076740;28;20056;-58
2021/10/22 06:07:35;;;;;;;7.65;1.98;;;;;;;;;;21076540;28;20411;-59
2021/10/22 06:17:37;;;;;;;6.28;1.52;;;;;;;;;;21082631;28;20155;-58
2021/10/22 06:27:39;;;;;;;3.78;1.33;;;;;;;;;;21090982;28;20044;-61
2021/10/22 06:37:41;;;;;;;4.60;1.45;;;;;;;;;;21089980;28;20507;-60
2021/10/22 06:47:47;;;;;;;3.95;1.40;;;;;;;;;;21089469;28;20570;-57
2021/10/22 06:57:49;;;;;;;5.88;1.45;;;;;;;;;;21088192;28;20058;-58
2021/10/22 07:07:51;;;;;;;6.82;1.30;;;;;;;;;;21087301;28;20086;-59
2021/10/22 07:17:56;;;;;;;6.80;1.40;;;;;;;;;;21087444;28;20072;-58
2021/10/22 07:27:57;;;;;;;6.43;1.65;;;;;;;;;;21085680;28;20059;-59
2021/10/22 07:37:59;;;;;;;2.88;1.42;;;;;;;;;;21085664;28;20536;-59
2021/10/22 07:48:01;;;;;;;8.18;1.60;;;;;;;;;;21084634;28;20052;-59
2021/10/22 07:58:04;;;;;;;5.30;2.05;;;;;;;;;;21083914;28;20419;-58
2021/10/22 08:08:09;;;;;;;3.75;1.20;;;;;;;;;;21083254;28;20056;-57
2021/10/22 08:18:11;;;;;;;8.90;1.42;;;;;;;;;;21085319;28;20051;-58
2021/10/22 08:28:14;;;;;;;3.13;1.03;;;;;;;;;;21082013;28;20087;-58
2021/10/22 08:38:16;;;;;;;8.45;1.35;;;;;;;;;;21080004;28;20122;-57
2021/10/22 08:48:18;;;;;;;4.85;1.20;;;;;;;;;;21079828;28;20139;-60
2021/10/22 08:58:20;;;;;;;2.85;0.82;;;;;;;;;;21078527;28;20048;-57
2021/10/22 09:08:28;;;;;;;2.05;0.93;;;;;;;;;;21079247;28;20134;-58
2021/10/22 09:18:31;;;;;;;3.28;1.02;;;;;;;;;;21077667;28;20056;-58
2021/10/22 09:28:34;;;;;;;2.92;0.82;;;;;;;;;;21076738;28;20059;-58
2021/10/22 09:38:36;;;;;;;5.78;1.10;;;;;;;;;;21076865;28;20048;-59
2021/10/22 09:48:41;;;;;;;2.75;1.48;;;;;;;;;;21077583;28;20063;-59
2021/10/22 09:58:53;;;;;;;4.20;1.92;;;;;;;;;;21074957;28;20504;-52
2021/10/22 10:08:55;;;;;;;4.63;0.85;;;;;;;;;;21068857;28;20040;-55
2021/10/22 10:19:03;;;;;;;8.43;1.63;;;;;;;;;;21040097;28;20052;-56
2021/10/22 10:29:07;;;;;;;4.20;1.20;;;;;;;;;;20961915;28;20452;-56
2021/10/22 10:39:09;;;;;;;;;;;;;;;;;;20922006;28;20045;-57
2021/10/22 10:49:11;;;;;;;3.63;1.40;;;;;;;;;;20922473;28;19947;-54
2021/10/22 10:59:12;;;;;;;2.88;1.05;;;;;;;;;;20976193;28;20133;-61
2021/10/22 11:09:17;;;;;;;3.22;1.30;;;;;;;;;;21002541;28;20090;-55
2021/10/22 11:19:20;;;;;;;8.35;1.30;;;;;;;;;;21003962;28;20072;-60
2021/10/22 11:29:22;;;;;;;3.47;0.93;;;;;;;;;;21003990;28;20477;-58
2021/10/22 11:39:28;;;;;;;4.43;0.97;;;;;;;;;;21003158;28;20053;-60
2021/10/22 11:49:31;;;;;;;2.30;0.80;;;;;;;;;;21000521;28;20048;-61
2021/10/22 11:59:34;;;;;;;1.70;0.77;;;;;;;;;;20999695;28;20493;-61
2021/10/22 12:09:37;;;;;;;6.85;0.98;;;;;;;;;;20982420;28;20170;-64
2021/10/22 12:19:41;;;;;;;1.35;0.60;;;;;;;;;;21006908;28;20048;-61
2021/10/22 12:29:47;;;;;;;1.80;0.50;;;;;;;;;;21005920;28;20049;-61
2021/10/22 12:39:51;;;;;;;2.47;0.70;;;;;;;;;;20996669;28;20064;-64
2021/10/22 12:49:54;;;;;;;1.05;0.40;;;;;;;;;;20997322;28;20053;-62
2021/10/22 13:00:16;;;;;;;2.13;0.52;;;;;;;;;;20996627;28;20099;-60
2021/10/22 13:10:34;;;;;;;1.27;0.60;;;;;;;;;;20995793;28;20048;-63
2021/10/22 13:20:39;;;;;;;1.05;0.50;;;;;;;;;;20995887;28;20053;-60
2021/10/22 13:30:45;;;;;;;2.47;0.50;;;;;;;;;;20994298;28;20127;-62
2021/10/22 13:40:48;;;;;;;2.60;0.52;;;;;;;;;;20994403;28;20527;-61
2021/10/22 13:50:51;;;;;;;1.50;0.55;;;;;;;;;;20993646;28;20051;-62
2021/10/22 14:00:54;;;;;;;1.83;0.32;;;;;;;;;;20992355;28;20052;-64
2021/10/22 14:11:00;;;;;;;4.35;0.80;;;;;;;;;;20994668;28;20074;-61
2021/10/22 14:31:30;;;;;;;1.08;0.30;;;;;;;;;;20993402;28;20440;-72
2021/10/22 14:41:34;;;;;;;1.20;0.40;;;;;;;;;;21004881;28;20045;-71
2021/10/22 15:01:40;;;;;;;0.55;0.55;;;;;;;;;;21005045;28;20564;-61
2021/10/22 15:11:44;;;;;;;1.08;0.30;;;;;;;;;;21004422;28;20091;-62
2021/10/22 15:21:48;;;;;;;;;;;;;;;;;;21003631;28;20132;-62
2021/10/22 15:31:51;;;;;;;0.50;0.30;;;;;;;;;;21001635;28;19925;-61
2021/10/22 15:41:54;;;;;;;4.80;1.15;;;;;;;;;;21001395;28;20489;-62
2021/10/22 15:51:56;;;;;;;1.08;0.50;;;;;;;;;;20981102;28;20094;-61
2021/10/22 16:01:59;;;;;;;1.70;0.40;;;;;;;;;;20999271;28;20052;-61
2021/10/22 16:12:14;;;;;;;2.70;0.40;;;;;;;;;;21003488;28;20048;-62
2021/10/22 16:22:17;;;;;;;1.05;0.40;;;;;;;;;;21007721;28;20048;-62
2021/10/22 16:32:19;;;;;;;0.70;0.50;;;;;;;;;;20998565;28;20046;-70
2021/10/22 16:42:22;;;;;;;;;;;;;;;;;;20997743;28;20480;-66
2021/10/22 16:52:27;;;;;;;0.98;0.40;;;;;;;;;;20996724;28;19920;-64
2021/10/22 17:02:31;;;;;;;1.65;0.40;;;;;;;;;;20994876;28;20064;-62
2021/10/22 17:12:33;;;;;;;2.33;0.50;;;;;;;;;;20995594;28;20068;-69
2021/10/22 17:22:36;;;;;;;1.75;0.47;;;;;;;;;;20996729;28;20390;-67
2021/10/22 17:32:39;;;;;;;0.80;0.50;;;;;;;;;;20994499;28;20507;-57
2021/10/22 17:42:41;;;;;;;1.20;0.40;;;;;;;;;;20994328;28;20044;-55
2021/10/22 17:52:43;;;;;;;1.70;0.65;;;;;;;;;;20993487;28;20052;-56
2021/10/22 18:02:46;;;;;;;2.25;0.50;;;;;;;;;;20994189;28;20083;-60
2021/10/22 18:12:48;;;;;;;2.80;0.80;;;;;;;;;;20999275;28;20151;-59
2021/10/22 18:22:49;;;;;;;1.25;0.57;;;;;;;;;;21007522;28;20405;-56
2021/10/22 18:32:51;;;;;;;1.27;0.50;;;;;;;;;;21007491;28;20485;-54
2021/10/22 18:42:54;;;;;;;2.35;0.60;;;;;;;;;;21017340;28;20045;-56
2021/10/22 18:52:56;;;;;;;0.73;0.57;;;;;;;;;;21003176;28;20079;-55
2021/10/22 19:02:57;;;;;;;2.05;1.02;;;;;;;;;;21004365;28;20054;-62
2021/10/22 19:13:00;;;;;;;2.08;0.60;;;;;;;;;;21004102;28;20067;-63
2021/10/22 19:23:02;;;;;;;1.70;0.82;;;;;;;;;;21002929;28;20056;-64
2021/10/22 19:33:04;;;;;;;2.15;0.90;;;;;;;;;;21002686;28;20048;-63
2021/10/22 19:43:05;;;;;;;2.80;0.63;;;;;;;;;;21002473;28;20086;-69
2021/10/22 19:53:09;;;;;;;2.97;0.77;;;;;;;;;;21001829;28;20070;-67
2021/10/22 20:03:11;;;;;;;2.00;0.80;;;;;;;;;;21001265;28;20052;-69
2021/10/22 20:13:13;;;;;;;1.92;0.65;;;;;;;;;;20999464;28;20059;-65
2021/10/22 20:23:15;;;;;;;2.25;0.85;;;;;;;;;;20997912;28;20091;-69
2021/10/22 20:33:19;;;;;;;2.72;0.90;;;;;;;;;;20997754;28;20060;-69
2021/10/22 20:43:21;;;;;;;1.80;0.80;;;;;;;;;;20998473;28;20571;-66
2021/10/22 21:03:44;;;;;;;1.65;0.68;;;;;;;;;;20997633;28;20045;-69
2021/10/22 21:13:46;;;;;;;2.33;0.70;;;;;;;;;;20997006;28;20131;-68
2021/10/22 21:23:49;;;;;;;2.78;0.55;;;;;;;;;;20995641;28;20048;-68
2021/10/22 21:33:51;;;;;;;1.85;0.60;;;;;;;;;;20995800;28;20207;-64
2021/10/22 21:43:53;;;;;;;2.88;0.80;;;;;;;;;;20994658;28;20099;-68
2021/10/22 21:53:56;;;;;;;3.17;0.65;;;;;;;;;;21009768;28;20049;-63
2021/10/22 22:03:58;;;;;;;1.35;0.68;;;;;;;;;;21010094;28;20141;-64
2021/10/22 22:14:00;;;;;;;2.92;0.50;;;;;;;;;;21010054;28;20451;-66
2021/10/22 22:24:02;;;;;;;0.80;0.45;;;;;;;;;;21009646;28;20063;-65
2021/10/22 22:34:04;;;;;;;2.08;0.70;;;;;;;;;;21008471;28;20045;-64
2021/10/22 22:44:06;;;;;;;1.58;0.70;;;;;;;;;;21007001;28;20075;-68
2021/10/22 22:54:08;;;;;;;2.60;1.30;;;;;;;;;;21006326;28;20056;-64
2021/10/22 23:04:09;;;;;;;1.00;0.60;;;;;;;;;;21005402;28;20049;-64
2021/10/22 23:14:11;;;;;;;1.25;0.68;;;;;;;;;;21004693;28;20128;-64
2021/10/22 23:24:13;;;;;;;1.33;0.90;;;;;;;;;;21004557;28;20048;-63
2021/10/22 23:34:15;;;;;;;2.40;0.90;;;;;;;;;;21003958;28;20056;-64
2021/10/22 23:44:17;;;;;;;1.65;0.80;;;;;;;;;;21008531;28;20480;-70
2021/10/22 23:54:19;;;;;;;4.32;1.42;;;;;;;;;;21003088;28;20040;-68
